sensor_id;sensor_type;location;lat;lon;timestamp;P1;durP1;ratioP1;P2;durP2;ratioP2
1785;SDS011;890;48.158;11.540;2023-03-01T00:01:47;10.10;;;6.20;;
1785;SDS011;890;48.158;11.540;2023-03-01T00:04:13;21.47;;;7.80;;
1785;SDS011;890;48.158;11.540;2023-03-01T00:06:38;8.93;;;6.20;;
1785;SDS011;890;48.158;11.540;2023-03-01T00:09:04;9.93;;;5.70;;
1785;SDS011;890;48.158;11.540;2023-03-01T00:11:31;8.80;;;5.93;;
1785;SDS011;890;48.158;11.540;2023-03-01T00:13:59;9.50;;;6.80;;
1785;SDS011;890;48.158;11.540;2023-03-01T00:16:28;10.23;;;7.13;;
1785;SDS011;890;48.158;11.540;2023-03-01T00:19:03;13.43;;;8.30;;
1785;SDS011;890;48.158;11.540;2023-03-01T00:21:29;10.90;;;7.50;;
1785;SDS011;890;48.158;11.540;2023-03-01T00:23:55;10.40;;;6.57;;
1785;SDS011;890;48.158;11.540;2023-03-01T00:26:22;8.90;;;6.07;;
1785;SDS011;890;48.158;11.540;2023-03-01T00:28:48;9.80;;;7.13;;
1785;SDS011;890;48.158;11.540;2023-03-01T00:31:15;8.97;;;5.67;;
1785;SDS011;890;48.158;11.540;2023-03-01T00:33:43;7.67;;;6.90;;
1785;SDS011;890;48.158;11.540;2023-03-01T00:36:09;9.93;;;6.93;;
1785;SDS011;890;48.158;11.540;2023-03-01T00:38:37;11.13;;;7.13;;
1785;SDS011;890;48.158;11.540;2023-03-01T00:41:07;13.23;;;8.00;;
1785;SDS011;890;48.158;11.540;2023-03-01T00:43:35;8.83;;;7.10;;
1785;SDS011;890;48.158;11.540;2023-03-01T00:46:04;11.30;;;6.70;;
1785;SDS011;890;48.158;11.540;2023-03-01T00:48:31;10.23;;;8.00;;
1785;SDS011;890;48.158;11.540;2023-03-01T00:50:57;14.63;;;7.33;;
1785;SDS011;890;48.158;11.540;2023-03-01T00:53:28;10.60;;;6.77;;
1785;SDS011;890;48.158;11.540;2023-03-01T00:55:56;11.87;;;8.00;;
1785;SDS011;890;48.158;11.540;2023-03-01T00:58:22;14.40;;;9.53;;
1785;SDS011;890;48.158;11.540;2023-03-01T01:00:47;10.40;;;7.60;;
1785;SDS011;890;48.158;11.540;2023-03-01T01:03:13;8.67;;;7.03;;
1785;SDS011;890;48.158;11.540;2023-03-01T01:05:38;8.37;;;7.43;;
1785;SDS011;890;48.158;11.540;2023-03-01T01:08:04;14.43;;;7.67;;
1785;SDS011;890;48.158;11.540;2023-03-01T01:10:30;8.43;;;6.90;;
1785;SDS011;890;48.158;11.540;2023-03-01T01:12:58;9.40;;;7.00;;
1785;SDS011;890;48.158;11.540;2023-03-01T01:15:23;10.37;;;6.30;;
1785;SDS011;890;48.158;11.540;2023-03-01T01:17:49;9.30;;;7.17;;
1785;SDS011;890;48.158;11.540;2023-03-01T01:20:14;11.93;;;7.40;;
1785;SDS011;890;48.158;11.540;2023-03-01T01:22:40;12.87;;;5.37;;
1785;SDS011;890;48.158;11.540;2023-03-01T01:25:06;10.80;;;8.20;;
1785;SDS011;890;48.158;11.540;2023-03-01T01:27:32;15.63;;;9.43;;
1785;SDS011;890;48.158;11.540;2023-03-01T01:29:57;9.10;;;6.33;;
1785;SDS011;890;48.158;11.540;2023-03-01T01:32:23;9.37;;;6.93;;
1785;SDS011;890;48.158;11.540;2023-03-01T01:34:48;13.87;;;6.20;;
1785;SDS011;890;48.158;11.540;2023-03-01T01:37:14;10.47;;;6.20;;
1785;SDS011;890;48.158;11.540;2023-03-01T01:39:39;11.07;;;7.03;;
1785;SDS011;890;48.158;11.540;2023-03-01T01:42:05;10.53;;;7.10;;
1785;SDS011;890;48.158;11.540;2023-03-01T01:44:33;11.60;;;8.03;;
1785;SDS011;890;48.158;11.540;2023-03-01T01:47:06;12.57;;;7.63;;
1785;SDS011;890;48.158;11.540;2023-03-01T01:49:48;7.27;;;5.33;;
1785;SDS011;890;48.158;11.540;2023-03-01T01:52:21;11.60;;;7.20;;
1785;SDS011;890;48.158;11.540;2023-03-01T01:57:22;9.43;;;6.43;;
1785;SDS011;890;48.158;11.540;2023-03-01T01:59:53;7.73;;;5.20;;
1785;SDS011;890;48.158;11.540;2023-03-01T02:02:21;17.87;;;8.20;;
1785;SDS011;890;48.158;11.540;2023-03-01T02:04:47;10.50;;;7.27;;
1785;SDS011;890;48.158;11.540;2023-03-01T02:07:19;11.10;;;7.60;;
1785;SDS011;890;48.158;11.540;2023-03-01T02:09:48;10.87;;;7.07;;
1785;SDS011;890;48.158;11.540;2023-03-01T02:12:18;8.77;;;6.73;;
1785;SDS011;890;48.158;11.540;2023-03-01T02:14:45;14.10;;;7.83;;
1785;SDS011;890;48.158;11.540;2023-03-01T02:17:11;10.73;;;7.93;;
1785;SDS011;890;48.158;11.540;2023-03-01T02:19:46;8.63;;;6.03;;
1785;SDS011;890;48.158;11.540;2023-03-01T02:28:05;9.90;;;7.33;;
1785;SDS011;890;48.158;11.540;2023-03-01T02:30:49;10.43;;;7.87;;
1785;SDS011;890;48.158;11.540;2023-03-01T02:33:35;9.03;;;6.80;;
1785;SDS011;890;48.158;11.540;2023-03-01T02:36:13;10.13;;;5.43;;
1785;SDS011;890;48.158;11.540;2023-03-01T02:38:44;16.50;;;7.70;;
1785;SDS011;890;48.158;11.540;2023-03-01T02:41:10;11.43;;;7.53;;
1785;SDS011;890;48.158;11.540;2023-03-01T02:43:39;10.13;;;6.43;;
1785;SDS011;890;48.158;11.540;2023-03-01T02:46:07;11.83;;;8.90;;
1785;SDS011;890;48.158;11.540;2023-03-01T02:48:49;11.83;;;7.33;;
1785;SDS011;890;48.158;11.540;2023-03-01T02:56:40;9.73;;;7.03;;
1785;SDS011;890;48.158;11.540;2023-03-01T02:59:07;7.73;;;5.73;;
1785;SDS011;890;48.158;11.540;2023-03-01T03:01:34;8.23;;;5.33;;
1785;SDS011;890;48.158;11.540;2023-03-01T03:04:06;24.27;;;8.63;;
1785;SDS011;890;48.158;11.540;2023-03-01T03:06:34;12.37;;;8.77;;
1785;SDS011;890;48.158;11.540;2023-03-01T03:09:00;10.90;;;6.73;;
1785;SDS011;890;48.158;11.540;2023-03-01T03:11:26;12.47;;;6.83;;
1785;SDS011;890;48.158;11.540;2023-03-01T03:13:52;9.30;;;6.90;;
1785;SDS011;890;48.158;11.540;2023-03-01T03:16:18;12.60;;;7.07;;
1785;SDS011;890;48.158;11.540;2023-03-01T03:18:44;7.57;;;6.60;;
1785;SDS011;890;48.158;11.540;2023-03-01T03:21:11;9.80;;;6.77;;
1785;SDS011;890;48.158;11.540;2023-03-01T03:23:37;8.07;;;6.03;;
1785;SDS011;890;48.158;11.540;2023-03-01T03:26:04;9.93;;;7.33;;
1785;SDS011;890;48.158;11.540;2023-03-01T03:28:30;7.30;;;5.83;;
1785;SDS011;890;48.158;11.540;2023-03-01T03:30:59;10.07;;;6.80;;
1785;SDS011;890;48.158;11.540;2023-03-01T03:33:31;12.13;;;5.93;;
1785;SDS011;890;48.158;11.540;2023-03-01T03:35:57;7.20;;;5.67;;
1785;SDS011;890;48.158;11.540;2023-03-01T03:38:23;10.33;;;6.90;;
1785;SDS011;890;48.158;11.540;2023-03-01T03:40:50;10.23;;;7.23;;
1785;SDS011;890;48.158;11.540;2023-03-01T03:43:18;8.93;;;6.13;;
1785;SDS011;890;48.158;11.540;2023-03-01T03:45:46;10.00;;;7.30;;
1785;SDS011;890;48.158;11.540;2023-03-01T03:48:13;8.33;;;6.57;;
1785;SDS011;890;48.158;11.540;2023-03-01T03:50:39;8.40;;;6.67;;
1785;SDS011;890;48.158;11.540;2023-03-01T03:53:07;13.13;;;7.40;;
1785;SDS011;890;48.158;11.540;2023-03-01T03:55:35;8.83;;;6.30;;
1785;SDS011;890;48.158;11.540;2023-03-01T03:58:04;10.90;;;7.40;;
1785;SDS011;890;48.158;11.540;2023-03-01T04:00:35;10.40;;;6.93;;
1785;SDS011;890;48.158;11.540;2023-03-01T04:03:05;9.10;;;7.93;;
1785;SDS011;890;48.158;11.540;2023-03-01T04:05:31;7.90;;;6.20;;
1785;SDS011;890;48.158;11.540;2023-03-01T04:07:57;11.80;;;7.77;;
1785;SDS011;890;48.158;11.540;2023-03-01T04:10:56;10.43;;;6.60;;
1785;SDS011;890;48.158;11.540;2023-03-01T04:13:21;11.30;;;6.93;;
1785;SDS011;890;48.158;11.540;2023-03-01T04:15:50;5.43;;;4.60;;
1785;SDS011;890;48.158;11.540;2023-03-01T04:18:17;12.77;;;8.07;;
1785;SDS011;890;48.158;11.540;2023-03-01T04:20:44;8.83;;;6.30;;
1785;SDS011;890;48.158;11.540;2023-03-01T04:23:15;6.73;;;5.47;;
1785;SDS011;890;48.158;11.540;2023-03-01T04:25:49;8.47;;;6.03;;
1785;SDS011;890;48.158;11.540;2023-03-01T04:28:26;12.10;;;8.43;;
1785;SDS011;890;48.158;11.540;2023-03-01T04:30:54;6.37;;;4.53;;
1785;SDS011;890;48.158;11.540;2023-03-01T04:33:20;8.93;;;5.97;;
1785;SDS011;890;48.158;11.540;2023-03-01T04:35:47;12.03;;;7.67;;
1785;SDS011;890;48.158;11.540;2023-03-01T04:38:14;10.00;;;6.83;;
1785;SDS011;890;48.158;11.540;2023-03-01T04:40:41;11.33;;;7.10;;
1785;SDS011;890;48.158;11.540;2023-03-01T04:43:08;9.87;;;7.27;;
1785;SDS011;890;48.158;11.540;2023-03-01T04:45:35;7.97;;;6.90;;
1785;SDS011;890;48.158;11.540;2023-03-01T04:48:01;7.37;;;5.30;;
1785;SDS011;890;48.158;11.540;2023-03-01T04:50:27;7.20;;;5.00;;
1785;SDS011;890;48.158;11.540;2023-03-01T04:52:53;11.67;;;6.27;;
1785;SDS011;890;48.158;11.540;2023-03-01T04:55:24;8.90;;;6.37;;
1785;SDS011;890;48.158;11.540;2023-03-01T04:57:51;8.53;;;6.40;;
1785;SDS011;890;48.158;11.540;2023-03-01T05:00:17;9.53;;;6.47;;
1785;SDS011;890;48.158;11.540;2023-03-01T05:02:56;6.83;;;5.70;;
1785;SDS011;890;48.158;11.540;2023-03-01T05:05:34;12.03;;;6.43;;
1785;SDS011;890;48.158;11.540;2023-03-01T05:08:02;14.40;;;8.13;;
1785;SDS011;890;48.158;11.540;2023-03-01T05:10:30;13.07;;;7.97;;
1785;SDS011;890;48.158;11.540;2023-03-01T05:12:57;12.27;;;8.03;;
1785;SDS011;890;48.158;11.540;2023-03-01T05:15:27;9.80;;;7.80;;
1785;SDS011;890;48.158;11.540;2023-03-01T05:17:55;9.83;;;6.90;;
1785;SDS011;890;48.158;11.540;2023-03-01T05:20:23;12.43;;;7.03;;
1785;SDS011;890;48.158;11.540;2023-03-01T05:22:52;11.87;;;6.50;;
1785;SDS011;890;48.158;11.540;2023-03-01T05:25:21;6.23;;;4.60;;
1785;SDS011;890;48.158;11.540;2023-03-01T05:27:46;11.13;;;6.17;;
1785;SDS011;890;48.158;11.540;2023-03-01T05:30:13;11.43;;;6.70;;
1785;SDS011;890;48.158;11.540;2023-03-01T05:32:40;11.33;;;6.23;;
1785;SDS011;890;48.158;11.540;2023-03-01T05:35:10;6.80;;;5.60;;
1785;SDS011;890;48.158;11.540;2023-03-01T05:37:44;11.03;;;6.97;;
1785;SDS011;890;48.158;11.540;2023-03-01T05:40:11;8.00;;;7.10;;
1785;SDS011;890;48.158;11.540;2023-03-01T05:42:45;8.80;;;5.50;;
1785;SDS011;890;48.158;11.540;2023-03-01T05:45:15;9.50;;;6.33;;
1785;SDS011;890;48.158;11.540;2023-03-01T05:47:43;8.83;;;6.33;;
1785;SDS011;890;48.158;11.540;2023-03-01T05:50:11;9.60;;;6.60;;
1785;SDS011;890;48.158;11.540;2023-03-01T05:52:39;10.03;;;5.07;;
1785;SDS011;890;48.158;11.540;2023-03-01T05:55:05;11.00;;;6.17;;
1785;SDS011;890;48.158;11.540;2023-03-01T05:57:31;7.67;;;5.87;;
1785;SDS011;890;48.158;11.540;2023-03-01T05:59:56;8.87;;;6.27;;
1785;SDS011;890;48.158;11.540;2023-03-01T06:02:22;6.53;;;4.80;;
1785;SDS011;890;48.158;11.540;2023-03-01T06:04:48;10.17;;;6.77;;
1785;SDS011;890;48.158;11.540;2023-03-01T06:07:13;14.83;;;6.93;;
1785;SDS011;890;48.158;11.540;2023-03-01T06:09:39;7.63;;;5.23;;
1785;SDS011;890;48.158;11.540;2023-03-01T06:12:04;5.47;;;4.87;;
1785;SDS011;890;48.158;11.540;2023-03-01T06:14:30;13.33;;;7.83;;
1785;SDS011;890;48.158;11.540;2023-03-01T06:16:56;9.03;;;5.60;;
1785;SDS011;890;48.158;11.540;2023-03-01T06:19:23;9.97;;;6.03;;
1785;SDS011;890;48.158;11.540;2023-03-01T06:21:48;10.47;;;6.53;;
1785;SDS011;890;48.158;11.540;2023-03-01T06:24:14;9.73;;;6.90;;
1785;SDS011;890;48.158;11.540;2023-03-01T06:26:39;6.97;;;4.90;;
1785;SDS011;890;48.158;11.540;2023-03-01T06:29:05;6.30;;;5.70;;
1785;SDS011;890;48.158;11.540;2023-03-01T06:31:30;5.73;;;3.77;;
1785;SDS011;890;48.158;11.540;2023-03-01T06:33:56;20.97;;;7.70;;
1785;SDS011;890;48.158;11.540;2023-03-01T06:36:22;8.10;;;5.50;;
1785;SDS011;890;48.158;11.540;2023-03-01T06:38:47;10.40;;;5.73;;
1785;SDS011;890;48.158;11.540;2023-03-01T06:41:13;13.43;;;8.00;;
1785;SDS011;890;48.158;11.540;2023-03-01T06:43:38;17.57;;;8.57;;
1785;SDS011;890;48.158;11.540;2023-03-01T06:46:05;9.47;;;6.00;;
1785;SDS011;890;48.158;11.540;2023-03-01T06:48:31;10.80;;;6.07;;
1785;SDS011;890;48.158;11.540;2023-03-01T06:50:59;15.10;;;7.13;;
1785;SDS011;890;48.158;11.540;2023-03-01T06:53:26;7.53;;;5.87;;
1785;SDS011;890;48.158;11.540;2023-03-01T06:55:55;7.93;;;5.53;;
1785;SDS011;890;48.158;11.540;2023-03-01T06:58:22;10.73;;;7.33;;
1785;SDS011;890;48.158;11.540;2023-03-01T07:00:48;12.87;;;6.77;;
1785;SDS011;890;48.158;11.540;2023-03-01T07:03:14;7.40;;;6.00;;
1785;SDS011;890;48.158;11.540;2023-03-01T07:05:39;8.03;;;5.93;;
1785;SDS011;890;48.158;11.540;2023-03-01T07:08:05;7.80;;;5.53;;
1785;SDS011;890;48.158;11.540;2023-03-01T07:10:31;10.80;;;7.13;;
1785;SDS011;890;48.158;11.540;2023-03-01T07:12:57;16.07;;;8.30;;
1785;SDS011;890;48.158;11.540;2023-03-01T07:15:24;7.33;;;5.17;;
1785;SDS011;890;48.158;11.540;2023-03-01T07:17:51;12.40;;;8.00;;
1785;SDS011;890;48.158;11.540;2023-03-01T07:20:20;12.83;;;8.00;;
1785;SDS011;890;48.158;11.540;2023-03-01T07:22:50;12.67;;;7.60;;
1785;SDS011;890;48.158;11.540;2023-03-01T07:25:17;10.13;;;6.00;;
1785;SDS011;890;48.158;11.540;2023-03-01T07:27:42;16.67;;;9.10;;
1785;SDS011;890;48.158;11.540;2023-03-01T07:30:08;9.30;;;5.50;;
1785;SDS011;890;48.158;11.540;2023-03-01T07:32:35;7.67;;;5.83;;
1785;SDS011;890;48.158;11.540;2023-03-01T07:35:00;10.30;;;6.93;;
1785;SDS011;890;48.158;11.540;2023-03-01T07:37:26;14.40;;;9.20;;
1785;SDS011;890;48.158;11.540;2023-03-01T07:39:52;8.37;;;6.83;;
1785;SDS011;890;48.158;11.540;2023-03-01T07:42:17;13.47;;;7.70;;
1785;SDS011;890;48.158;11.540;2023-03-01T07:44:43;12.40;;;6.70;;
1785;SDS011;890;48.158;11.540;2023-03-01T07:47:08;8.23;;;6.60;;
1785;SDS011;890;48.158;11.540;2023-03-01T07:49:34;12.40;;;7.30;;
1785;SDS011;890;48.158;11.540;2023-03-01T07:51:59;12.03;;;8.07;;
1785;SDS011;890;48.158;11.540;2023-03-01T07:54:25;10.90;;;7.20;;
1785;SDS011;890;48.158;11.540;2023-03-01T07:56:51;11.87;;;6.43;;
1785;SDS011;890;48.158;11.540;2023-03-01T07:59:17;10.40;;;6.43;;
1785;SDS011;890;48.158;11.540;2023-03-01T08:01:42;14.53;;;7.27;;
1785;SDS011;890;48.158;11.540;2023-03-01T08:04:08;14.80;;;9.50;;
1785;SDS011;890;48.158;11.540;2023-03-01T08:06:35;9.43;;;6.30;;
1785;SDS011;890;48.158;11.540;2023-03-01T08:09:01;9.30;;;7.30;;
1785;SDS011;890;48.158;11.540;2023-03-01T08:11:27;15.33;;;7.37;;
1785;SDS011;890;48.158;11.540;2023-03-01T08:13:53;12.70;;;8.13;;
1785;SDS011;890;48.158;11.540;2023-03-01T08:16:19;14.20;;;7.70;;
1785;SDS011;890;48.158;11.540;2023-03-01T08:18:45;8.73;;;6.57;;
1785;SDS011;890;48.158;11.540;2023-03-01T08:21:12;11.40;;;7.80;;
1785;SDS011;890;48.158;11.540;2023-03-01T08:23:40;14.30;;;8.60;;
1785;SDS011;890;48.158;11.540;2023-03-01T08:26:08;12.00;;;7.97;;
1785;SDS011;890;48.158;11.540;2023-03-01T08:28:34;14.13;;;7.33;;
1785;SDS011;890;48.158;11.540;2023-03-01T08:31:00;14.83;;;9.00;;
1785;SDS011;890;48.158;11.540;2023-03-01T08:33:25;12.53;;;7.80;;
1785;SDS011;890;48.158;11.540;2023-03-01T08:35:51;10.50;;;8.90;;
1785;SDS011;890;48.158;11.540;2023-03-01T08:38:16;12.20;;;7.63;;
1785;SDS011;890;48.158;11.540;2023-03-01T08:40:42;18.47;;;10.37;;
1785;SDS011;890;48.158;11.540;2023-03-01T08:43:08;10.30;;;8.07;;
1785;SDS011;890;48.158;11.540;2023-03-01T08:45:33;10.23;;;7.73;;
1785;SDS011;890;48.158;11.540;2023-03-01T08:47:59;11.97;;;6.43;;
1785;SDS011;890;48.158;11.540;2023-03-01T08:50:25;9.00;;;5.90;;
1785;SDS011;890;48.158;11.540;2023-03-01T08:52:50;9.60;;;6.57;;
1785;SDS011;890;48.158;11.540;2023-03-01T08:55:16;13.63;;;9.10;;
1785;SDS011;890;48.158;11.540;2023-03-01T08:57:42;14.73;;;8.50;;
1785;SDS011;890;48.158;11.540;2023-03-01T09:00:09;11.53;;;6.90;;
1785;SDS011;890;48.158;11.540;2023-03-01T09:02:36;12.33;;;9.07;;
1785;SDS011;890;48.158;11.540;2023-03-01T09:05:02;14.83;;;9.20;;
1785;SDS011;890;48.158;11.540;2023-03-01T09:07:27;18.50;;;7.53;;
1785;SDS011;890;48.158;11.540;2023-03-01T09:09:53;19.87;;;8.87;;
1785;SDS011;890;48.158;11.540;2023-03-01T09:12:20;21.40;;;9.00;;
1785;SDS011;890;48.158;11.540;2023-03-01T09:14:45;14.53;;;8.30;;
1785;SDS011;890;48.158;11.540;2023-03-01T09:17:11;15.47;;;11.27;;
1785;SDS011;890;48.158;11.540;2023-03-01T09:19:37;10.17;;;7.23;;
1785;SDS011;890;48.158;11.540;2023-03-01T09:22:03;16.33;;;9.93;;
1785;SDS011;890;48.158;11.540;2023-03-01T09:24:29;14.63;;;9.50;;
1785;SDS011;890;48.158;11.540;2023-03-01T09:26:55;18.50;;;9.43;;
1785;SDS011;890;48.158;11.540;2023-03-01T09:29:21;19.03;;;9.27;;
1785;SDS011;890;48.158;11.540;2023-03-01T09:31:48;12.03;;;7.57;;
1785;SDS011;890;48.158;11.540;2023-03-01T09:34:13;15.90;;;9.03;;
1785;SDS011;890;48.158;11.540;2023-03-01T09:36:41;14.67;;;8.57;;
1785;SDS011;890;48.158;11.540;2023-03-01T09:39:06;11.50;;;8.03;;
1785;SDS011;890;48.158;11.540;2023-03-01T09:41:38;15.17;;;10.23;;
1785;SDS011;890;48.158;11.540;2023-03-01T09:44:25;15.10;;;7.93;;
1785;SDS011;890;48.158;11.540;2023-03-01T09:46:59;15.73;;;9.93;;
1785;SDS011;890;48.158;11.540;2023-03-01T09:49:33;21.00;;;9.20;;
1785;SDS011;890;48.158;11.540;2023-03-01T09:52:07;15.83;;;10.23;;
1785;SDS011;890;48.158;11.540;2023-03-01T09:54:36;18.23;;;12.00;;
1785;SDS011;890;48.158;11.540;2023-03-01T09:57:05;18.83;;;9.93;;
1785;SDS011;890;48.158;11.540;2023-03-01T10:10:37;9.17;;;7.00;;
1785;SDS011;890;48.158;11.540;2023-03-01T10:18:53;18.67;;;10.03;;
1785;SDS011;890;48.158;11.540;2023-03-01T10:21:25;16.07;;;10.07;;
1785;SDS011;890;48.158;11.540;2023-03-01T10:23:52;12.90;;;7.43;;
1785;SDS011;890;48.158;11.540;2023-03-01T10:29:06;16.73;;;10.47;;
1785;SDS011;890;48.158;11.540;2023-03-01T10:31:36;14.90;;;9.53;;
1785;SDS011;890;48.158;11.540;2023-03-01T10:34:09;24.63;;;18.90;;
1785;SDS011;890;48.158;11.540;2023-03-01T10:36:37;24.93;;;18.90;;
1785;SDS011;890;48.158;11.540;2023-03-01T10:39:10;25.17;;;18.73;;
1785;SDS011;890;48.158;11.540;2023-03-01T10:41:44;23.23;;;16.63;;
1785;SDS011;890;48.158;11.540;2023-03-01T10:44:34;26.63;;;15.70;;
1785;SDS011;890;48.158;11.540;2023-03-01T10:47:32;24.90;;;16.97;;
1785;SDS011;890;48.158;11.540;2023-03-01T10:50:02;21.53;;;15.50;;
1785;SDS011;890;48.158;11.540;2023-03-01T10:52:36;20.13;;;14.67;;
1785;SDS011;890;48.158;11.540;2023-03-01T10:55:27;20.57;;;14.90;;
1785;SDS011;890;48.158;11.540;2023-03-01T11:00:34;25.80;;;15.23;;
1785;SDS011;890;48.158;11.540;2023-03-01T11:03:19;23.53;;;15.47;;
1785;SDS011;890;48.158;11.540;2023-03-01T11:08:43;20.67;;;13.07;;
1785;SDS011;890;48.158;11.540;2023-03-01T11:11:23;19.50;;;14.03;;
1785;SDS011;890;48.158;11.540;2023-03-01T11:16:43;19.93;;;14.30;;
1785;SDS011;890;48.158;11.540;2023-03-01T11:24:14;22.33;;;15.10;;
1785;SDS011;890;48.158;11.540;2023-03-01T11:26:41;21.10;;;16.30;;
1785;SDS011;890;48.158;11.540;2023-03-01T11:32:08;24.23;;;15.87;;
1785;SDS011;890;48.158;11.540;2023-03-01T11:34:40;22.47;;;16.23;;
1785;SDS011;890;48.158;11.540;2023-03-01T11:37:16;23.67;;;17.83;;
1785;SDS011;890;48.158;11.540;2023-03-01T11:40:52;22.50;;;16.40;;
1785;SDS011;890;48.158;11.540;2023-03-01T11:51:08;24.37;;;16.20;;
1785;SDS011;890;48.158;11.540;2023-03-01T11:57:10;18.60;;;15.70;;
1785;SDS011;890;48.158;11.540;2023-03-01T11:59:57;25.03;;;16.60;;
1785;SDS011;890;48.158;11.540;2023-03-01T12:08:22;19.03;;;15.70;;
1785;SDS011;890;48.158;11.540;2023-03-01T12:13:59;19.80;;;15.27;;
1785;SDS011;890;48.158;11.540;2023-03-01T12:19:01;21.53;;;16.43;;
1785;SDS011;890;48.158;11.540;2023-03-01T12:43:43;23.07;;;16.80;;
1785;SDS011;890;48.158;11.540;2023-03-01T12:49:47;22.80;;;16.80;;
1785;SDS011;890;48.158;11.540;2023-03-01T12:52:07;21.70;;;16.23;;
1785;SDS011;890;48.158;11.540;2023-03-01T12:54:48;26.00;;;17.50;;
1785;SDS011;890;48.158;11.540;2023-03-01T12:57:40;24.17;;;19.50;;
1785;SDS011;890;48.158;11.540;2023-03-01T13:00:27;24.57;;;19.13;;
1785;SDS011;890;48.158;11.540;2023-03-01T13:08:20;26.33;;;18.67;;
1785;SDS011;890;48.158;11.540;2023-03-01T13:10:58;26.83;;;20.33;;
1785;SDS011;890;48.158;11.540;2023-03-01T13:13:30;25.40;;;18.93;;
1785;SDS011;890;48.158;11.540;2023-03-01T13:15:56;24.17;;;20.10;;
1785;SDS011;890;48.158;11.540;2023-03-01T13:20:52;25.00;;;19.60;;
1785;SDS011;890;48.158;11.540;2023-03-01T13:31:10;27.87;;;21.00;;
1785;SDS011;890;48.158;11.540;2023-03-01T13:34:02;27.23;;;20.20;;
1785;SDS011;890;48.158;11.540;2023-03-01T13:39:03;24.80;;;19.20;;
1785;SDS011;890;48.158;11.540;2023-03-01T13:46:49;24.57;;;18.77;;
1785;SDS011;890;48.158;11.540;2023-03-01T13:49:17;26.60;;;21.03;;
1785;SDS011;890;48.158;11.540;2023-03-01T13:51:46;25.37;;;19.87;;
1785;SDS011;890;48.158;11.540;2023-03-01T13:54:18;25.77;;;19.03;;
1785;SDS011;890;48.158;11.540;2023-03-01T13:56:58;26.83;;;19.57;;
1785;SDS011;890;48.158;11.540;2023-03-01T13:59:25;27.67;;;19.53;;
1785;SDS011;890;48.158;11.540;2023-03-01T14:01:54;28.00;;;19.20;;
1785;SDS011;890;48.158;11.540;2023-03-01T14:04:26;26.90;;;19.50;;
1785;SDS011;890;48.158;11.540;2023-03-01T14:07:10;25.73;;;19.63;;
1785;SDS011;890;48.158;11.540;2023-03-01T14:09:52;25.70;;;19.60;;
1785;SDS011;890;48.158;11.540;2023-03-01T14:12:30;30.57;;;19.77;;
1785;SDS011;890;48.158;11.540;2023-03-01T14:15:02;28.97;;;19.67;;
1785;SDS011;890;48.158;11.540;2023-03-01T14:20:20;28.23;;;20.93;;
1785;SDS011;890;48.158;11.540;2023-03-01T14:22:47;25.67;;;19.63;;
1785;SDS011;890;48.158;11.540;2023-03-01T14:28:03;25.43;;;19.80;;
1785;SDS011;890;48.158;11.540;2023-03-01T14:30:52;28.20;;;20.50;;
1785;SDS011;890;48.158;11.540;2023-03-01T14:35:55;25.87;;;18.50;;
1785;SDS011;890;48.158;11.540;2023-03-01T14:38:29;25.87;;;19.30;;
1785;SDS011;890;48.158;11.540;2023-03-01T14:40:58;24.30;;;18.07;;
1785;SDS011;890;48.158;11.540;2023-03-01T14:43:26;24.97;;;17.83;;
1785;SDS011;890;48.158;11.540;2023-03-01T14:45:54;23.97;;;17.20;;
1785;SDS011;890;48.158;11.540;2023-03-01T14:48:20;24.50;;;17.07;;
1785;SDS011;890;48.158;11.540;2023-03-01T14:50:46;27.03;;;20.07;;
1785;SDS011;890;48.158;11.540;2023-03-01T14:53:20;25.70;;;18.37;;
1785;SDS011;890;48.158;11.540;2023-03-01T14:55:53;24.80;;;17.90;;
1785;SDS011;890;48.158;11.540;2023-03-01T14:58:31;23.10;;;17.07;;
1785;SDS011;890;48.158;11.540;2023-03-01T15:00:59;24.73;;;17.33;;
1785;SDS011;890;48.158;11.540;2023-03-01T15:03:34;23.17;;;15.87;;
1785;SDS011;890;48.158;11.540;2023-03-01T15:06:05;23.43;;;17.07;;
1785;SDS011;890;48.158;11.540;2023-03-01T15:08:32;23.77;;;16.80;;
1785;SDS011;890;48.158;11.540;2023-03-01T15:13:49;20.80;;;16.33;;
1785;SDS011;890;48.158;11.540;2023-03-01T15:16:17;25.27;;;17.17;;
1785;SDS011;890;48.158;11.540;2023-03-01T15:18:49;23.67;;;15.83;;
1785;SDS011;890;48.158;11.540;2023-03-01T15:21:23;21.57;;;16.27;;
1785;SDS011;890;48.158;11.540;2023-03-01T15:23:53;21.50;;;16.00;;
1785;SDS011;890;48.158;11.540;2023-03-01T15:26:26;23.20;;;16.30;;
1785;SDS011;890;48.158;11.540;2023-03-01T15:28:55;20.43;;;16.10;;
1785;SDS011;890;48.158;11.540;2023-03-01T15:31:24;22.40;;;16.20;;
1785;SDS011;890;48.158;11.540;2023-03-01T15:36:51;29.07;;;16.60;;
1785;SDS011;890;48.158;11.540;2023-03-01T15:47:38;20.60;;;14.97;;
1785;SDS011;890;48.158;11.540;2023-03-01T15:50:05;22.60;;;15.67;;
1785;SDS011;890;48.158;11.540;2023-03-01T15:52:51;21.53;;;14.43;;
1785;SDS011;890;48.158;11.540;2023-03-01T15:55:19;26.40;;;16.20;;
1785;SDS011;890;48.158;11.540;2023-03-01T15:57:46;21.47;;;15.60;;
1785;SDS011;890;48.158;11.540;2023-03-01T16:00:13;21.17;;;16.00;;
1785;SDS011;890;48.158;11.540;2023-03-01T16:02:40;21.27;;;15.10;;
1785;SDS011;890;48.158;11.540;2023-03-01T16:08:02;20.37;;;14.93;;
1785;SDS011;890;48.158;11.540;2023-03-01T16:10:29;17.47;;;14.20;;
1785;SDS011;890;48.158;11.540;2023-03-01T16:12:56;20.97;;;15.40;;
1785;SDS011;890;48.158;11.540;2023-03-01T16:15:23;19.57;;;14.80;;
1785;SDS011;890;48.158;11.540;2023-03-01T16:17:57;21.20;;;15.60;;
1785;SDS011;890;48.158;11.540;2023-03-01T16:20:26;20.77;;;15.30;;
1785;SDS011;890;48.158;11.540;2023-03-01T16:22:53;19.67;;;15.53;;
1785;SDS011;890;48.158;11.540;2023-03-01T16:25:19;21.87;;;15.10;;
1785;SDS011;890;48.158;11.540;2023-03-01T16:27:46;20.13;;;13.73;;
1785;SDS011;890;48.158;11.540;2023-03-01T16:30:14;19.83;;;14.90;;
1785;SDS011;890;48.158;11.540;2023-03-01T16:32:42;20.77;;;14.43;;
1785;SDS011;890;48.158;11.540;2023-03-01T16:35:10;19.87;;;14.50;;
1785;SDS011;890;48.158;11.540;2023-03-01T16:37:37;20.43;;;14.77;;
1785;SDS011;890;48.158;11.540;2023-03-01T16:40:04;23.60;;;16.30;;
1785;SDS011;890;48.158;11.540;2023-03-01T16:42:35;19.30;;;13.83;;
1785;SDS011;890;48.158;11.540;2023-03-01T16:45:01;18.87;;;13.67;;
1785;SDS011;890;48.158;11.540;2023-03-01T16:47:27;18.53;;;13.27;;
1785;SDS011;890;48.158;11.540;2023-03-01T16:49:53;19.80;;;13.97;;
1785;SDS011;890;48.158;11.540;2023-03-01T16:52:20;17.20;;;13.20;;
1785;SDS011;890;48.158;11.540;2023-03-01T16:54:46;20.70;;;14.10;;
1785;SDS011;890;48.158;11.540;2023-03-01T16:57:12;19.70;;;14.37;;
1785;SDS011;890;48.158;11.540;2023-03-01T16:59:38;19.63;;;14.80;;
1785;SDS011;890;48.158;11.540;2023-03-01T17:02:04;21.70;;;13.80;;
1785;SDS011;890;48.158;11.540;2023-03-01T17:04:31;19.87;;;13.80;;
1785;SDS011;890;48.158;11.540;2023-03-01T17:06:57;18.27;;;13.97;;
1785;SDS011;890;48.158;11.540;2023-03-01T17:09:23;18.10;;;13.80;;
1785;SDS011;890;48.158;11.540;2023-03-01T17:11:48;21.07;;;14.60;;
1785;SDS011;890;48.158;11.540;2023-03-01T17:14:15;19.60;;;14.10;;
1785;SDS011;890;48.158;11.540;2023-03-01T17:16:42;21.53;;;15.50;;
1785;SDS011;890;48.158;11.540;2023-03-01T17:19:08;19.10;;;14.07;;
1785;SDS011;890;48.158;11.540;2023-03-01T17:21:34;19.60;;;14.27;;
1785;SDS011;890;48.158;11.540;2023-03-01T17:23:59;20.43;;;13.90;;
1785;SDS011;890;48.158;11.540;2023-03-01T17:26:25;17.93;;;13.43;;
1785;SDS011;890;48.158;11.540;2023-03-01T17:28:53;21.47;;;14.53;;
1785;SDS011;890;48.158;11.540;2023-03-01T17:31:19;21.00;;;14.60;;
1785;SDS011;890;48.158;11.540;2023-03-01T17:33:45;18.47;;;13.80;;
1785;SDS011;890;48.158;11.540;2023-03-01T17:36:11;18.23;;;13.47;;
1785;SDS011;890;48.158;11.540;2023-03-01T17:38:36;22.70;;;14.87;;